sensor_id;sensor_type;location;lat;lon;timestamp;pressure;altitude;pressure_sealevel;temperature;humidity
51249;BME280;39642;47.556;18.728;2023-12-20T00:01:08;99671.63;;;22.19;27.41
51249;BME280;39642;47.556;18.728;2023-12-20T00:03:34;99676.91;;;22.19;27.43
51249;BME280;39642;47.556;18.728;2023-12-20T00:06:00;99670.78;;;22.18;27.37
51249;BME280;39642;47.556;18.728;2023-12-20T00:08:26;99670.88;;;22.17;27.32
51249;BME280;39642;47.556;18.728;2023-12-20T00:10:52;99671.84;;;22.16;27.33
51249;BME280;39642;47.556;18.728;2023-12-20T00:13:17;99670.97;;;22.15;27.40
51249;BME280;39642;47.556;18.728;2023-12-20T00:15:43;99666.63;;;22.14;27.33
51249;BME280;39642;47.556;18.728;2023-12-20T00:18:09;99657.81;;;22.14;27.30
51249;BME280;39642;47.556;18.728;2023-12-20T00:20:35;99660.56;;;22.12;27.39
51249;BME280;39642;47.556;18.728;2023-12-20T00:23:01;99651.88;;;22.10;27.36
51249;BME280;39642;47.556;18.728;2023-12-20T00:25:28;99648.38;;;22.10;27.39
51249;BME280;39642;47.556;18.728;2023-12-20T00:27:53;99644.00;;;22.09;27.47
51249;BME280;39642;47.556;18.728;2023-12-20T00:30:19;99637.03;;;22.08;27.54
51249;BME280;39642;47.556;18.728;2023-12-20T00:32:45;99630.03;;;22.07;27.59
51249;BME280;39642;47.556;18.728;2023-12-20T00:35:15;99625.66;;;22.06;27.43
51249;BME280;39642;47.556;18.728;2023-12-20T00:37:41;99613.37;;;22.04;27.39
51249;BME280;39642;47.556;18.728;2023-12-20T00:40:07;99612.41;;;22.06;27.38
51249;BME280;39642;47.556;18.728;2023-12-20T00:42:33;99615.91;;;22.06;27.39
51249;BME280;39642;47.556;18.728;2023-12-20T00:45:00;99623.00;;;22.06;27.27
51249;BME280;39642;47.556;18.728;2023-12-20T00:47:26;99615.06;;;22.06;27.24
51249;BME280;39642;47.556;18.728;2023-12-20T00:49:52;99607.94;;;22.06;27.25
51249;BME280;39642;47.556;18.728;2023-12-20T00:52:18;99607.09;;;22.06;27.27
51249;BME280;39642;47.556;18.728;2023-12-20T00:54:45;99603.50;;;22.07;27.30
51249;BME280;39642;47.556;18.728;2023-12-20T00:57:11;99601.72;;;22.07;27.18
51249;BME280;39642;47.556;18.728;2023-12-20T00:59:37;99598.94;;;22.09;27.22
51249;BME280;39642;47.556;18.728;2023-12-20T01:02:02;99595.34;;;22.10;27.11
51249;BME280;39642;47.556;18.728;2023-12-20T01:04:28;99592.59;;;22.11;27.12
51249;BME280;39642;47.556;18.728;2023-12-20T01:06:54;99586.31;;;22.12;27.08
51249;BME280;39642;47.556;18.728;2023-12-20T01:09:20;99578.38;;;22.12;27.08
51249;BME280;39642;47.556;18.728;2023-12-20T01:11:49;99572.97;;;22.14;27.12
51249;BME280;39642;47.556;18.728;2023-12-20T01:14:15;99570.31;;;22.14;27.04
51249;BME280;39642;47.556;18.728;2023-12-20T01:16:40;99553.44;;;22.15;27.12
51249;BME280;39642;47.556;18.728;2023-12-20T01:19:06;99556.94;;;22.15;27.06
51249;BME280;39642;47.556;18.728;2023-12-20T01:21:32;99560.44;;;22.16;27.07
51249;BME280;39642;47.556;18.728;2023-12-20T01:23:58;99553.34;;;22.16;27.09
51249;BME280;39642;47.556;18.728;2023-12-20T01:26:24;99559.50;;;22.17;27.11
51249;BME280;39642;47.556;18.728;2023-12-20T01:28:50;99553.25;;;22.18;27.07
51249;BME280;39642;47.556;18.728;2023-12-20T01:31:16;99552.28;;;22.19;27.17
51249;BME280;39642;47.556;18.728;2023-12-20T01:33:42;99552.28;;;22.19;27.19
51249;BME280;39642;47.556;18.728;2023-12-20T01:36:08;99547.81;;;22.19;27.05
51249;BME280;39642;47.556;18.728;2023-12-20T01:38:34;99548.59;;;22.21;27.12
51249;BME280;39642;47.556;18.728;2023-12-20T01:41:00;99544.22;;;22.20;27.07
51249;BME280;39642;47.556;18.728;2023-12-20T01:43:26;99537.09;;;22.21;27.07
51249;BME280;39642;47.556;18.728;2023-12-20T01:45:52;99536.25;;;22.20;27.14
51249;BME280;39642;47.556;18.728;2023-12-20T01:48:19;99520.34;;;22.20;27.09
51249;BME280;39642;47.556;18.728;2023-12-20T01:50:45;99520.34;;;22.20;27.09
51249;BME280;39642;47.556;18.728;2023-12-20T01:53:12;99519.47;;;22.20;27.06
51249;BME280;39642;47.556;18.728;2023-12-20T01:55:40;99516.00;;;22.19;27.09
51249;BME280;39642;47.556;18.728;2023-12-20T01:58:07;99508.16;;;22.18;27.05
51249;BME280;39642;47.556;18.728;2023-12-20T02:00:36;99508.25;;;22.16;27.12
51249;BME280;39642;47.556;18.728;2023-12-20T02:03:02;99502.12;;;22.16;27.14
51249;BME280;39642;47.556;18.728;2023-12-20T02:05:30;99505.69;;;22.15;27.18
51249;BME280;39642;47.556;18.728;2023-12-20T02:07:56;99497.75;;;22.15;27.20
51249;BME280;39642;47.556;18.728;2023-12-20T02:10:22;99497.84;;;22.13;27.14
51249;BME280;39642;47.556;18.728;2023-12-20T02:12:48;99492.66;;;22.12;27.17
51249;BME280;39642;47.556;18.728;2023-12-20T02:15:14;99488.31;;;22.11;27.21
51249;BME280;39642;47.556;18.728;2023-12-20T02:17:40;99486.62;;;22.10;27.41
51249;BME280;39642;47.556;18.728;2023-12-20T02:20:07;99473.47;;;22.08;27.29
51249;BME280;39642;47.556;18.728;2023-12-20T02:22:32;99468.28;;;22.07;27.33
51249;BME280;39642;47.556;18.728;2023-12-20T02:24:58;99463.94;;;22.06;27.25
51249;BME280;39642;47.556;18.728;2023-12-20T02:27:24;99463.94;;;22.06;27.21
51249;BME280;39642;47.556;18.728;2023-12-20T02:29:50;99460.44;;;22.05;27.25
51249;BME280;39642;47.556;18.728;2023-12-20T02:32:20;99459.59;;;22.04;27.37
51249;BME280;39642;47.556;18.728;2023-12-20T02:34:48;99455.97;;;22.06;27.25
51249;BME280;39642;47.556;18.728;2023-12-20T02:37:14;99448.03;;;22.06;27.19
51249;BME280;39642;47.556;18.728;2023-12-20T02:39:40;99448.03;;;22.06;27.17
51249;BME280;39642;47.556;18.728;2023-12-20T02:42:06;99448.84;;;22.06;27.12
51249;BME280;39642;47.556;18.728;2023-12-20T02:44:31;99445.28;;;22.07;27.14
51249;BME280;39642;47.556;18.728;2023-12-20T02:46:57;99442.63;;;22.07;27.09
51249;BME280;39642;47.556;18.728;2023-12-20T02:49:23;99440.81;;;22.08;27.07
51249;BME280;39642;47.556;18.728;2023-12-20T02:51:49;99438.06;;;22.09;26.97
51249;BME280;39642;47.556;18.728;2023-12-20T02:54:15;99441.53;;;22.10;26.97
51249;BME280;39642;47.556;18.728;2023-12-20T02:56:41;99439.75;;;22.10;26.96
51249;BME280;39642;47.556;18.728;2023-12-20T02:59:07;99443.13;;;22.12;26.93
51249;BME280;39642;47.556;18.728;2023-12-20T03:01:34;99441.31;;;22.13;26.95
51249;BME280;39642;47.556;18.728;2023-12-20T03:04:01;99446.63;;;22.13;26.99
51249;BME280;39642;47.556;18.728;2023-12-20T03:06:27;99440.38;;;22.14;26.97
51249;BME280;39642;47.556;18.728;2023-12-20T03:08:52;99435.06;;;22.14;26.99
51249;BME280;39642;47.556;18.728;2023-12-20T03:11:18;99433.25;;;22.14;26.98
51249;BME280;39642;47.556;18.728;2023-12-20T03:13:44;99427.00;;;22.15;26.94
51249;BME280;39642;47.556;18.728;2023-12-20T03:16:11;99428.69;;;22.16;26.97
51249;BME280;39642;47.556;18.728;2023-12-20T03:18:37;99434.84;;;22.17;26.96
51249;BME280;39642;47.556;18.728;2023-12-20T03:21:04;99434.84;;;22.17;26.94
51249;BME280;39642;47.556;18.728;2023-12-20T03:23:30;99431.25;;;22.18;26.97
51249;BME280;39642;47.556;18.728;2023-12-20T03:26:01;99437.41;;;22.18;26.98
51249;BME280;39642;47.556;18.728;2023-12-20T03:28:27;99436.44;;;22.19;26.95
51249;BME280;39642;47.556;18.728;2023-12-20T03:30:53;99426.66;;;22.20;27.00
51249;BME280;39642;47.556;18.728;2023-12-20T03:33:19;99423.16;;;22.19;26.95
51249;BME280;39642;47.556;18.728;2023-12-20T03:35:45;99416.06;;;22.20;26.95
51249;BME280;39642;47.556;18.728;2023-12-20T03:38:11;99410.75;;;22.20;26.93
51249;BME280;39642;47.556;18.728;2023-12-20T03:40:37;99408.97;;;22.20;26.95
51249;BME280;39642;47.556;18.728;2023-12-20T03:43:02;99418.69;;;22.20;26.92
51249;BME280;39642;47.556;18.728;2023-12-20T03:45:28;99412.56;;;22.19;26.99
51249;BME280;39642;47.556;18.728;2023-12-20T03:47:54;99425.94;;;22.18;26.93
51249;BME280;39642;47.556;18.728;2023-12-20T03:50:22;99428.59;;;22.18;27.04
51249;BME280;39642;47.556;18.728;2023-12-20T03:52:48;99434.94;;;22.15;26.98
51249;BME280;39642;47.556;18.728;2023-12-20T03:55:15;99433.16;;;22.16;27.04
51249;BME280;39642;47.556;18.728;2023-12-20T03:57:41;99415.53;;;22.15;26.98
51249;BME280;39642;47.556;18.728;2023-12-20T04:00:07;99413.97;;;22.12;27.03
51249;BME280;39642;47.556;18.728;2023-12-20T04:02:40;99416.63;;;22.12;27.09
51249;BME280;39642;47.556;18.728;2023-12-20T04:05:07;99419.38;;;22.11;27.11
51249;BME280;39642;47.556;18.728;2023-12-20T04:07:33;99410.56;;;22.10;27.10
51249;BME280;39642;47.556;18.728;2023-12-20T04:09:59;99409.81;;;22.08;27.14
51249;BME280;39642;47.556;18.728;2023-12-20T04:12:27;99409.00;;;22.08;27.19
51249;BME280;39642;47.556;18.728;2023-12-20T04:14:52;99402.00;;;22.07;27.17
51249;BME280;39642;47.556;18.728;2023-12-20T04:17:19;99395.00;;;22.06;27.12
51249;BME280;39642;47.556;18.728;2023-12-20T04:19:46;99385.22;;;22.06;27.23
51249;BME280;39642;47.556;18.728;2023-12-20T04:22:11;99384.37;;;22.06;27.07
51249;BME280;39642;47.556;18.728;2023-12-20T04:24:37;99388.00;;;22.04;27.10
51249;BME280;39642;47.556;18.728;2023-12-20T04:27:03;99383.53;;;22.05;27.05
51249;BME280;39642;47.556;18.728;2023-12-20T04:29:29;99384.37;;;22.06;27.08
51249;BME280;39642;47.556;18.728;2023-12-20T04:31:55;99373.78;;;22.06;27.04
51249;BME280;39642;47.556;18.728;2023-12-20T04:34:23;99364.88;;;22.07;26.98
51249;BME280;39642;47.556;18.728;2023-12-20T04:36:48;99361.25;;;22.08;26.90
51249;BME280;39642;47.556;18.728;2023-12-20T04:39:14;99370.91;;;22.09;26.89
51249;BME280;39642;47.556;18.728;2023-12-20T04:41:40;99364.66;;;22.10;26.81
51249;BME280;39642;47.556;18.728;2023-12-20T04:44:06;99350.44;;;22.11;26.79
51249;BME280;39642;47.556;18.728;2023-12-20T04:46:32;99344.19;;;22.12;26.81
51249;BME280;39642;47.556;18.728;2023-12-20T04:48:58;99331.75;;;22.12;26.98
51249;BME280;39642;47.556;18.728;2023-12-20T04:51:24;99322.97;;;22.12;26.77
51249;BME280;39642;47.556;18.728;2023-12-20T04:53:50;99327.31;;;22.13;26.74
51249;BME280;39642;47.556;18.728;2023-12-20T04:56:16;99329.00;;;22.14;26.79
51249;BME280;39642;47.556;18.728;2023-12-20T04:58:42;99321.06;;;22.14;26.80
51249;BME280;39642;47.556;18.728;2023-12-20T05:01:08;99327.09;;;22.16;26.79
51249;BME280;39642;47.556;18.728;2023-12-20T05:03:35;99333.25;;;22.16;26.84
51249;BME280;39642;47.556;18.728;2023-12-20T05:06:01;99335.78;;;22.18;26.78
51249;BME280;39642;47.556;18.728;2023-12-20T05:08:27;99342.03;;;22.17;26.78
51249;BME280;39642;47.556;18.728;2023-12-20T05:10:54;99352.75;;;22.15;26.78
51249;BME280;39642;47.556;18.728;2023-12-20T05:13:20;99352.75;;;22.15;26.66
51249;BME280;39642;47.556;18.728;2023-12-20T05:15:46;99351.91;;;22.15;26.63
51249;BME280;39642;47.556;18.728;2023-12-20T05:18:12;99345.75;;;22.14;26.56
51249;BME280;39642;47.556;18.728;2023-12-20T05:20:39;99332.50;;;22.14;26.55
51249;BME280;39642;47.556;18.728;2023-12-20T05:23:05;99333.44;;;22.13;26.45
51249;BME280;39642;47.556;18.728;2023-12-20T05:25:32;99329.09;;;22.12;26.42
51249;BME280;39642;47.556;18.728;2023-12-20T05:27:58;99322.97;;;22.12;26.53
51249;BME280;39642;47.556;18.728;2023-12-20T05:30:23;99315.00;;;22.12;26.71
51249;BME280;39642;47.556;18.728;2023-12-20T05:32:49;99323.91;;;22.11;26.78
51249;BME280;39642;47.556;18.728;2023-12-20T05:35:15;99317.75;;;22.10;26.78
51249;BME280;39642;47.556;18.728;2023-12-20T05:37:41;99316.94;;;22.10;26.74
51249;BME280;39642;47.556;18.728;2023-12-20T05:40:08;99309.91;;;22.09;26.71
51249;BME280;39642;47.556;18.728;2023-12-20T05:42:36;99310.88;;;22.08;26.72
51249;BME280;39642;47.556;18.728;2023-12-20T05:45:04;99315.34;;;22.07;27.16
51249;BME280;39642;47.556;18.728;2023-12-20T05:47:30;99314.50;;;22.07;26.66
51249;BME280;39642;47.556;18.728;2023-12-20T05:49:56;99305.59;;;22.08;27.30
51249;BME280;39642;47.556;18.728;2023-12-20T05:52:22;99313.31;;;22.11;29.85
51249;BME280;39642;47.556;18.728;2023-12-20T05:54:48;99309.38;;;22.16;30.18
51249;BME280;39642;47.556;18.728;2023-12-20T05:57:14;99317.94;;;22.20;29.35
51249;BME280;39642;47.556;18.728;2023-12-20T05:59:40;99303.84;;;22.19;29.43
51249;BME280;39642;47.556;18.728;2023-12-20T06:02:06;99299.31;;;22.21;29.55
51249;BME280;39642;47.556;18.728;2023-12-20T06:04:32;99299.81;;;22.27;30.20
51249;BME280;39642;47.556;18.728;2023-12-20T06:06:58;99305.97;;;22.27;30.06
51249;BME280;39642;47.556;18.728;2023-12-20T06:09:27;99314.78;;;22.28;29.51
51249;BME280;39642;47.556;18.728;2023-12-20T06:11:53;99322.63;;;22.29;30.01
51249;BME280;39642;47.556;18.728;2023-12-20T06:14:19;99327.94;;;22.29;29.20
51249;BME280;39642;47.556;18.728;2023-12-20T06:16:45;99332.25;;;22.30;29.62
51249;BME280;39642;47.556;18.728;2023-12-20T06:19:11;99334.91;;;22.30;29.26
51249;BME280;39642;47.556;18.728;2023-12-20T06:21:37;99345.53;;;22.30;29.17
51249;BME280;39642;47.556;18.728;2023-12-20T06:24:03;99343.72;;;22.31;29.37
51249;BME280;39642;47.556;18.728;2023-12-20T06:26:29;99342.78;;;22.32;29.56
51249;BME280;39642;47.556;18.728;2023-12-20T06:28:55;99337.47;;;22.32;29.44
51249;BME280;39642;47.556;18.728;2023-12-20T06:31:21;99347.94;;;22.33;29.26
51249;BME280;39642;47.556;18.728;2023-12-20T06:33:47;99348.41;;;22.27;28.57
51249;BME280;39642;47.556;18.728;2023-12-20T06:36:15;99346.81;;;22.24;29.17
51249;BME280;39642;47.556;18.728;2023-12-20T06:38:41;99361.88;;;22.24;29.40
51249;BME280;39642;47.556;18.728;2023-12-20T06:41:07;99353.19;;;22.22;29.10
51249;BME280;39642;47.556;18.728;2023-12-20T06:43:33;99369.19;;;22.20;28.60
51249;BME280;39642;47.556;18.728;2023-12-20T06:46:02;99377.47;;;22.16;28.79
51249;BME280;39642;47.556;18.728;2023-12-20T06:48:28;99373.22;;;22.13;29.12
51249;BME280;39642;47.556;18.728;2023-12-20T06:50:54;99354.66;;;22.13;29.36
51249;BME280;39642;47.556;18.728;2023-12-20T06:53:20;99360.19;;;22.10;28.31
51249;BME280;39642;47.556;18.728;2023-12-20T06:55:46;99354.28;;;22.07;28.81
51249;BME280;39642;47.556;18.728;2023-12-20T06:58:12;99368.25;;;22.09;28.40
51249;BME280;39642;47.556;18.728;2023-12-20T07:00:38;99373.34;;;22.12;27.67
51249;BME280;39642;47.556;18.728;2023-12-20T07:03:04;99375.16;;;22.11;27.57
51249;BME280;39642;47.556;18.728;2023-12-20T07:05:30;99358.63;;;22.08;27.12
51249;BME280;39642;47.556;18.728;2023-12-20T07:08:01;99346.09;;;22.10;27.07
51249;BME280;39642;47.556;18.728;2023-12-20T07:10:27;99346.94;;;22.10;26.99
51249;BME280;39642;47.556;18.728;2023-12-20T07:12:53;99340.69;;;22.11;26.92
51249;BME280;39642;47.556;18.728;2023-12-20T07:15:21;99337.06;;;22.12;26.77
51249;BME280;39642;47.556;18.728;2023-12-20T07:17:47;99336.22;;;22.12;27.81
51249;BME280;39642;47.556;18.728;2023-12-20T07:20:13;99339.81;;;22.11;27.70
51249;BME280;39642;47.556;18.728;2023-12-20T07:22:39;99329.00;;;22.14;27.88
51249;BME280;39642;47.556;18.728;2023-12-20T07:25:06;99331.53;;;22.15;28.04
51249;BME280;39642;47.556;18.728;2023-12-20T07:27:32;99328.78;;;22.17;28.69
51249;BME280;39642;47.556;18.728;2023-12-20T07:29:58;99329.41;;;22.20;28.59
51249;BME280;39642;47.556;18.728;2023-12-20T07:32:24;99332.91;;;22.21;29.28
51249;BME280;39642;47.556;18.728;2023-12-20T07:41:15;99346.81;;;22.24;28.74
51249;BME280;39642;47.556;18.728;2023-12-20T07:43:41;99339.72;;;22.25;28.59
51249;BME280;39642;47.556;18.728;2023-12-20T07:46:08;99340.66;;;22.24;28.76
51249;BME280;39642;47.556;18.728;2023-12-20T07:48:34;99337.81;;;22.27;29.00
51249;BME280;39642;47.556;18.728;2023-12-20T07:51:01;99333.44;;;22.26;28.87
51249;BME280;39642;47.556;18.728;2023-12-20T07:53:27;99323.66;;;22.27;28.71
51249;BME280;39642;47.556;18.728;2023-12-20T07:55:55;99320.28;;;22.24;28.94
51249;BME280;39642;47.556;18.728;2023-12-20T07:58:21;99322.00;;;22.26;29.15
51249;BME280;39642;47.556;18.728;2023-12-20T08:00:47;99324.53;;;22.27;29.56
51249;BME280;39642;47.556;18.728;2023-12-20T08:03:13;99325.28;;;22.29;29.73
51249;BME280;39642;47.556;18.728;2023-12-20T08:05:39;99322.87;;;22.37;29.93
51249;BME280;39642;47.556;18.728;2023-12-20T08:08:06;99329.16;;;22.36;29.57
51249;BME280;39642;47.556;18.728;2023-12-20T08:10:32;99324.94;;;22.34;29.21
51249;BME280;39642;47.556;18.728;2023-12-20T08:12:58;99332.16;;;22.32;29.16
51249;BME280;39642;47.556;18.728;2023-12-20T08:15:24;99327.94;;;22.29;29.63
51249;BME280;39642;47.556;18.728;2023-12-20T08:17:50;99333.22;;;22.29;29.71
51249;BME280;39642;47.556;18.728;2023-12-20T08:20:19;99334.91;;;22.30;29.29
51249;BME280;39642;47.556;18.728;2023-12-20T08:22:45;99341.91;;;22.31;29.34
51249;BME280;39642;47.556;18.728;2023-12-20T08:25:11;99346.25;;;22.32;28.48
51249;BME280;39642;47.556;18.728;2023-12-20T08:27:40;99334.19;;;22.28;29.28
51249;BME280;39642;47.556;18.728;2023-12-20T08:30:08;99349.16;;;22.29;29.52
51249;BME280;39642;47.556;18.728;2023-12-20T08:32:35;99340.44;;;22.27;27.89
51249;BME280;39642;47.556;18.728;2023-12-20T08:35:00;99341.62;;;22.23;28.15
51249;BME280;39642;47.556;18.728;2023-12-20T08:37:26;99347.88;;;22.22;28.39
51249;BME280;39642;47.556;18.728;2023-12-20T08:39:52;99343.63;;;22.19;28.41
51249;BME280;39642;47.556;18.728;2023-12-20T08:42:18;99349.69;;;22.21;29.13
51249;BME280;39642;47.556;18.728;2023-12-20T08:44:45;99342.66;;;22.20;29.37
51249;BME280;39642;47.556;18.728;2023-12-20T08:47:11;99343.44;;;22.22;28.61
51249;BME280;39642;47.556;18.728;2023-12-20T08:49:39;99348.62;;;22.24;28.77
51249;BME280;39642;47.556;18.728;2023-12-20T08:52:05;99353.91;;;22.24;28.36
51249;BME280;39642;47.556;18.728;2023-12-20T08:54:31;99354.75;;;22.24;28.04
51249;BME280;39642;47.556;18.728;2023-12-20T08:56:57;99361.09;;;22.35;29.15
51249;BME280;39642;47.556;18.728;2023-12-20T08:59:23;99358.22;;;22.38;31.18
51249;BME280;39642;47.556;18.728;2023-12-20T09:01:49;99346.75;;;22.37;30.14
51249;BME280;39642;47.556;18.728;2023-12-20T09:04:20;99349.31;;;22.39;30.52
51249;BME280;39642;47.556;18.728;2023-12-20T09:06:46;99352.47;;;22.44;32.73
51249;BME280;39642;47.556;18.728;2023-12-20T09:09:12;99350.84;;;22.54;33.85
51249;BME280;39642;47.556;18.728;2023-12-20T09:11:40;99350.03;;;22.65;34.92
51249;BME280;39642;47.556;18.728;2023-12-20T09:14:06;99346.72;;;22.74;35.69
51249;BME280;39642;47.556;18.728;2023-12-20T09:16:32;99351.19;;;22.85;36.86
51249;BME280;39642;47.556;18.728;2023-12-20T09:18:58;99344.47;;;22.92;37.64
51249;BME280;39642;47.556;18.728;2023-12-20T09:21:24;99334.97;;;23.01;38.11
51249;BME280;39642;47.556;18.728;2023-12-20T09:23:50;99337.91;;;23.09;38.71
51249;BME280;39642;47.556;18.728;2023-12-20T09:26:19;99329.56;;;23.14;38.44
51249;BME280;39642;47.556;18.728;2023-12-20T09:28:46;99337.19;;;23.18;39.24
51249;BME280;39642;47.556;18.728;2023-12-20T09:31:13;99332.34;;;23.23;39.22
51249;BME280;39642;47.556;18.728;2023-12-20T09:33:39;99325.13;;;23.25;39.13
51249;BME280;39642;47.556;18.728;2023-12-20T09:36:05;99321.50;;;23.26;39.12
51249;BME280;39642;47.556;18.728;2023-12-20T09:38:31;99324.91;;;23.28;39.21
51249;BME280;39642;47.556;18.728;2023-12-20T09:40:57;99315.22;;;23.27;39.71
51249;BME280;39642;47.556;18.728;2023-12-20T09:43:24;99323.09;;;23.29;39.64
51249;BME280;39642;47.556;18.728;2023-12-20T09:45:53;99311.47;;;23.30;40.31
51249;BME280;39642;47.556;18.728;2023-12-20T09:48:19;99298.19;;;23.30;40.77
51249;BME280;39642;47.556;18.728;2023-12-20T09:50:46;99301.59;;;23.32;40.87
51249;BME280;39642;47.556;18.728;2023-12-20T09:53:15;99309.56;;;23.32;40.88
51249;BME280;39642;47.556;18.728;2023-12-20T09:55:42;99311.25;;;23.33;41.37
51249;BME280;39642;47.556;18.728;2023-12-20T09:58:08;99299.53;;;23.36;41.58
51249;BME280;39642;47.556;18.728;2023-12-20T10:00:35;99299.53;;;23.36;40.06
51249;BME280;39642;47.556;18.728;2023-12-20T10:03:01;99308.47;;;23.35;40.93
51249;BME280;39642;47.556;18.728;2023-12-20T10:05:31;99298.19;;;23.30;37.85
51249;BME280;39642;47.556;18.728;2023-12-20T10:07:58;99275.16;;;23.19;37.09
51249;BME280;39642;47.556;18.728;2023-12-20T10:10:25;99293.72;;;23.08;36.08
51249;BME280;39642;47.556;18.728;2023-12-20T10:13:04;99271.13;;;23.02;34.90
51249;BME280;39642;47.556;18.728;2023-12-20T10:15:33;99275.09;;;22.97;34.38
51249;BME280;39642;47.556;18.728;2023-12-20T10:17:59;99268.53;;;22.90;34.68
51249;BME280;39642;47.556;18.728;2023-12-20T10:20:25;99272.41;;;22.85;34.10
51249;BME280;39642;47.556;18.728;2023-12-20T10:22:52;99262.25;;;22.79;32.60
51249;BME280;39642;47.556;18.728;2023-12-20T10:25:22;99258.16;;;22.75;32.88
51249;BME280;39642;47.556;18.728;2023-12-20T10:27:50;99251.16;;;22.74;32.41
51249;BME280;39642;47.556;18.728;2023-12-20T10:30:16;99254.87;;;22.72;32.33
51249;BME280;39642;47.556;18.728;2023-12-20T10:32:42;99255.09;;;22.69;31.91
51249;BME280;39642;47.556;18.728;2023-12-20T10:35:08;99255.94;;;22.69;31.58
51249;BME280;39642;47.556;18.728;2023-12-20T10:37:36;99248.72;;;22.71;31.35
51249;BME280;39642;47.556;18.728;2023-12-20T10:40:04;99249.56;;;22.72;31.14
51249;BME280;39642;47.556;18.728;2023-12-20T10:42:31;99232.19;;;22.68;30.99
51249;BME280;39642;47.556;18.728;2023-12-20T10:44:59;99227.09;;;22.64;31.94
51249;BME280;39642;47.556;18.728;2023-12-20T10:47:25;99231.19;;;22.57;32.55
51249;BME280;39642;47.556;18.728;2023-12-20T10:49:54;99238.44;;;22.55;33.58
51249;BME280;39642;47.556;18.728;2023-12-20T10:52:23;99234.94;;;22.55;34.25
51249;BME280;39642;47.556;18.728;2023-12-20T10:54:50;99240.47;;;22.52;33.71
51249;BME280;39642;47.556;18.728;2023-12-20T10:57:18;99221.19;;;22.50;33.83
51249;BME280;39642;47.556;18.728;2023-12-20T10:59:45;99215.13;;;22.48;34.28
51249;BME280;39642;47.556;18.728;2023-12-20T11:02:14;99208.66;;;22.52;33.14
51249;BME280;39642;47.556;18.728;2023-12-20T11:04:49;99204.53;;;22.48;32.64
51249;BME280;39642;47.556;18.728;2023-12-20T11:10:10;99190.88;;;22.41;32.05
51249;BME280;39642;47.556;18.728;2023-12-20T11:13:03;99192.44;;;22.32;32.09
51249;BME280;39642;47.556;18.728;2023-12-20T11:15:38;99181.09;;;22.30;32.32
51249;BME280;39642;47.556;18.728;2023-12-20T11:18:05;99170.37;;;22.32;32.69
51249;BME280;39642;47.556;18.728;2023-12-20T11:20:39;99170.00;;;22.36;32.45
51249;BME280;39642;47.556;18.728;2023-12-20T11:23:06;99162.06;;;22.36;32.47
51249;BME280;39642;47.556;18.728;2023-12-20T11:28:12;99174.72;;;22.44;32.02
51249;BME280;39642;47.556;18.728;2023-12-20T11:30:42;99182.44;;;22.47;32.20
51249;BME280;39642;47.556;18.728;2023-12-20T11:33:11;99185.72;;;22.51;32.98
51249;BME280;39642;47.556;18.728;2023-12-20T11:35:39;99179.69;;;22.49;32.78
51249;BME280;39642;47.556;18.728;2023-12-20T11:38:08;99167.50;;;22.46;31.50
51249;BME280;39642;47.556;18.728;2023-12-20T11:40:37;99158.69;;;22.45;31.20
51249;BME280;39642;47.556;18.728;2023-12-20T11:43:04;99164.84;;;22.46;31.52
51249;BME280;39642;47.556;18.728;2023-12-20T11:45:31;99161.34;;;22.45;31.91
51249;BME280;39642;47.556;18.728;2023-12-20T11:47:57;99153.25;;;22.47;31.37
51249;BME280;39642;47.556;18.728;2023-12-20T11:50:24;99155.06;;;22.47;31.71
51249;BME280;39642;47.556;18.728;2023-12-20T11:52:51;99151.22;;;22.51;32.04
51249;BME280;39642;47.556;18.728;2023-12-20T11:55:18;99154.50;;;22.54;32.04
51249;BME280;39642;47.556;18.728;2023-12-20T11:57:44;99140.16;;;22.57;32.22
51249;BME280;39642;47.556;18.728;2023-12-20T12:00:11;99144.47;;;22.58;32.47
51249;BME280;39642;47.556;18.728;2023-12-20T12:02:37;99147.97;;;22.58;32.57
51249;BME280;39642;47.556;18.728;2023-12-20T12:05:03;99146.19;;;22.59;31.54
51249;BME280;39642;47.556;18.728;2023-12-20T12:07:33;99141.72;;;22.59;32.40
51249;BME280;39642;47.556;18.728;2023-12-20T12:10:00;99136.28;;;22.61;32.65
51249;BME280;39642;47.556;18.728;2023-12-20T12:12:26;99134.38;;;22.63;32.78
51249;BME280;39642;47.556;18.728;2023-12-20T12:14:53;99133.41;;;22.64;32.92
51249;BME280;39642;47.556;18.728;2023-12-20T12:17:20;99123.63;;;22.64;32.58
51249;BME280;39642;47.556;18.728;2023-12-20T12:19:46;99129.75;;;22.65;33.01
51249;BME280;39642;47.556;18.728;2023-12-20T12:22:14;99129.75;;;22.65;32.22
51249;BME280;39642;47.556;18.728;2023-12-20T12:24:44;99136.78;;;22.66;33.00
51249;BME280;39642;47.556;18.728;2023-12-20T12:27:12;99127.09;;;22.65;32.34
51249;BME280;39642;47.556;18.728;2023-12-20T12:29:38;99135.06;;;22.65;32.71
51249;BME280;39642;47.556;18.728;2023-12-20T12:32:08;99127.97;;;22.65;32.84
51249;BME280;39642;47.556;18.728;2023-12-20T12:34:35;99136.66;;;22.68;32.65
51249;BME280;39642;47.556;18.728;2023-12-20T12:37:03;99131.47;;;22.66;32.75
51249;BME280;39642;47.556;18.728;2023-12-20T12:39:30;99133.13;;;22.67;33.01
51249;BME280;39642;47.556;18.728;2023-12-20T12:41:56;99131.34;;;22.68;32.47
51249;BME280;39642;47.556;18.728;2023-12-20T12:44:23;99123.50;;;22.66;32.86
51249;BME280;39642;47.556;18.728;2023-12-20T12:46:52;99121.81;;;22.65;32.63
51249;BME280;39642;47.556;18.728;2023-12-20T12:49:20;99123.50;;;22.66;33.27
51249;BME280;39642;47.556;18.728;2023-12-20T12:51:47;99124.22;;;22.68;33.38
51249;BME280;39642;47.556;18.728;2023-12-20T12:54:13;99132.06;;;22.70;33.25
51249;BME280;39642;47.556;18.728;2023-12-20T12:56:42;99124.97;;;22.70;32.45
51249;BME280;39642;47.556;18.728;2023-12-20T12:59:08;99124.97;;;22.70;32.24